Flag for Canada

Past Weather in 43°47'25.3"N, 79°31'11.5"W, Canada — Yesterday and Last 2 Weeks

Currently: 59 °F. Passing clouds. (Weather station: Toronto Pearson International Airport, Canada). See more current weather

Past Weather in 43°47'25.3"N, 79°31'11.5"W — Graph

°F

43°47'25.3"N, 79°31'11.5"W Temperature Yesterday

Maximum temperature yesterday: 70 °F (at 3:00 pm)
Minimum temperature yesterday: 39 °F (at 2:00 am)
Average temperature yesterday: 55 °F

High & Low Weather Summary for the Past Weeks

 TemperatureHumidityPressure
High72 °F (Oct 11, 3:00 pm)100% (Oct 4, 11:00 pm)30.39 "Hg (Oct 4, 11:00 pm)
Low39 °F (Oct 19, 2:00 am)35% (Oct 19, 2:00 pm)29.61 "Hg (Oct 16, 4:40 am)
Average61 °F86%30.01 "Hg
* Reported Oct 4 11:00 pm — Oct 19 11:00 pm, 43°47'25.3"N, 79°31'11.5"W. Weather by CustomWeather, © 2021

Note: Actual official high and low records may vary slightly from our data, if they occured in-between our weather recording intervals... More about our weather records

43°47'25.3"N, 79°31'11.5"W Weather History for the Previous 24 Hours

Scroll right to see more
 ConditionsComfort  
Time TempWeatherWind HumidityBarometerVisibility
11:00 pm
Tue, Oct 19
59 °FPassing clouds.7 mph63%30.00 "Hg15 mi
10:00 pm59 °FPassing clouds.8 mph63%30.00 "Hg15 mi
9:00 pm59 °FClear.9 mph63%29.99 "Hg15 mi
8:00 pm61 °FClear.9 mph59%29.99 "Hg15 mi
7:00 pm61 °FPassing clouds.9 mph59%29.98 "Hg15 mi
6:00 pm66 °FScattered clouds.13 mph49%29.97 "Hg15 mi
5:00 pm70 °FScattered clouds.20 mph43%29.96 "Hg15 mi
4:00 pm70 °FPassing clouds.18 mph43%29.96 "Hg15 mi
3:00 pm70 °FSunny.20 mph38%29.97 "Hg15 mi
2:00 pm68 °FSunny.16 mph35%29.99 "Hg15 mi
1:00 pm68 °FSunny.14 mph38%30.01 "Hg15 mi
12:00 pm64 °FSunny.15 mph43%30.03 "Hg15 mi
11:00 am59 °FSunny.12 mph63%30.05 "Hg15 mi
10:00 am54 °FSunny.10 mph77%30.06 "Hg15 mi
9:00 am48 °FSunny.5 mph87%30.06 "Hg15 mi
8:00 am45 °FSunny.5 mph87%30.05 "Hg15 mi
7:00 am45 °FClear.3 mph81%30.06 "Hg15 mi
6:00 am43 °FClear.2 mph87%30.05 "Hg15 mi
5:00 am43 °FClear.6 mph87%30.05 "Hg15 mi
4:00 am45 °FClear.7 mph81%30.04 "Hg15 mi
3:00 am43 °FClear.8 mph87%30.05 "Hg15 mi
2:00 am39 °FClear.7 mph93%30.06 "Hg15 mi
1:00 am41 °FClear.8 mph87%30.06 "Hg15 mi
12:00 am43 °FClear.5 mph81%30.06 "Hg15 mi
Weather by CustomWeather, © 2021

See weather overview